Cocoa Beach, FL

09:19 EST le 08 février 2016 (GMT -0500)
The Weather Reporter | | Change Station
CLOSE
Current Station
Stations météorologiques personnelles
Location: Merritt Island, FL
Altitude: 13 ft
Stations météo à proximité

Alt. 13 ft 28.36 °N, 80.66 °W | Updated 9 minutes ago

Ciel dégagé
Ciel dégagé
53.2 ° F
Paraît 53.2 ° F
N
2.0
Vent Variable Vent de OSO

Aujourd'hui
Haut(e) -- | Bas -- ° F
--% Risque de précip.
Hier
Haut(e) -- | Bas -- ° F
Precip. -- pouce
Pression 30.09 pouce
Visibilité 10.0 Miles terrestres
Nuages Ciel dégagé
Point de rosée 43 ° F
Humidité 68%
Précipitations 0.00 pouce
Profondeur de la couche neigeuse Non disponible.
7:06 AM 6:07 PM
Lune descendante, 0% visible
METAR KCOF 081358Z AUTO 27009KT 10SM CLR 11/04 A3008 RMK AO2 SLP190 T01100036 $
Pression 30.09 pouce
Visibilité 10.0 Miles terrestres
Nuages Ciel dégagé
Point de rosée 43 ° F
Humidité 68%
Précipitations 0.00 pouce
Profondeur de la couche neigeuse Non disponible.
7:06 AM 6:07 PM
Lune descendante, 0% visible
METAR KCOF 081358Z AUTO 27009KT 10SM CLR 11/04 A3008 RMK AO2 SLP190 T01100036 $

10-Day Weather Forecast

Almanac

Astronomie

Feb. 08, 2016 Lever Coucher
Temps réel
Crépuscule civil
Crépuscule nautique
Crépuscule astronomique
Lune
Durée de lumière visible
Longueur du jour
Tomorrow will be .
, % of the Moon is Illuminated

Extrêmes aujourd'hui

State Highs State Lows

Community

WunderPhotos

Upload Photos

1,891,437 Photos téléchargées !

WunderBlog® & News

Nearby

Qualité de l'air

  Qualité de l'air Indice de la qualité de l'air Polluant
Not available.

Épaisseur de neige

Station Depth Altitude

Activité sismique

Ville Distance Mag. Time & Date
Minimum magnitude displayed is 2.5.

Températures des eaux côtières

Lieu Température

Stations

Stations météo à proximité

Emplacement de la station Température Refroidissement éolien Point de rosée Humidité Vent Precip. Alt. Mise à jour Type
                   

Watches & Warnings

There are currently no watches in effect.